createdAt,value
2023-04-24T00:00:15.896Z,10.70
2023-04-24T00:03:04.438Z,10.40
2023-04-24T00:05:32.284Z,11.60
2023-04-24T00:08:00.078Z,11.40
2023-04-24T00:10:28.005Z,11.00
2023-04-24T00:12:55.837Z,9.10
2023-04-24T00:15:23.808Z,9.20
2023-04-24T00:17:51.845Z,8.80
2023-04-24T00:20:20.162Z,9.40
2023-04-24T00:22:47.964Z,10.40
2023-04-24T00:25:15.772Z,11.60
2023-04-24T00:27:43.433Z,10.30
2023-04-24T00:30:11.495Z,12.50
2023-04-24T00:32:39.263Z,12.50
2023-04-24T00:35:07.488Z,12.90
2023-04-24T00:37:35.279Z,10.10
2023-04-24T00:40:04.133Z,12.10
2023-04-24T00:42:32.292Z,11.20
2023-04-24T00:45:01.976Z,10.30
2023-04-24T00:47:29.980Z,9.00
2023-04-24T00:49:57.710Z,9.00
2023-04-24T00:52:26.595Z,12.00
2023-04-24T00:54:55.480Z,10.70
2023-04-24T00:57:24.867Z,9.90
2023-04-24T00:59:54.452Z,12.80
2023-04-24T01:02:25.508Z,9.30
2023-04-24T01:04:53.467Z,10.40
2023-04-24T01:07:22.245Z,8.90
2023-04-24T01:09:52.308Z,10.40
2023-04-24T01:12:20.778Z,9.70
2023-04-24T01:14:48.524Z,10.70
2023-04-24T01:17:16.658Z,11.00
2023-04-24T01:19:47.513Z,9.20
2023-04-24T01:22:15.871Z,11.70
2023-04-24T01:24:44.321Z,11.10
2023-04-24T01:27:12.805Z,12.70
2023-04-24T01:29:41.127Z,9.80
2023-04-24T01:32:09.236Z,11.30
2023-04-24T01:34:38.174Z,11.90
2023-04-24T01:37:06.504Z,10.70
2023-04-24T01:39:34.626Z,12.90
2023-04-24T01:42:05.268Z,11.00
2023-04-24T01:44:34.315Z,11.00
2023-04-24T01:47:03.003Z,10.50
2023-04-24T01:49:30.858Z,10.30
2023-04-24T01:51:58.749Z,10.40
2023-04-24T01:54:26.465Z,10.10
2023-04-24T01:56:54.199Z,9.90
2023-04-24T01:59:24.460Z,10.20
2023-04-24T02:01:52.245Z,12.20
2023-04-24T02:04:20.258Z,13.00
2023-04-24T02:06:48.176Z,11.00
2023-04-24T02:09:15.927Z,11.50
2023-04-24T02:11:43.703Z,11.00
2023-04-24T02:14:11.624Z,12.00
2023-04-24T02:16:39.555Z,10.90
2023-04-24T02:19:07.457Z,11.00
2023-04-24T02:21:35.556Z,12.90
2023-04-24T02:24:03.477Z,11.60
2023-04-24T02:26:32.960Z,12.80
2023-04-24T02:29:01.134Z,13.30
2023-04-24T02:31:29.976Z,13.20
2023-04-24T02:33:57.775Z,11.70
2023-04-24T02:36:25.566Z,10.50
2023-04-24T02:38:53.391Z,13.60
2023-04-24T02:41:21.168Z,11.80
2023-04-24T02:43:48.948Z,11.90
2023-04-24T02:46:16.862Z,12.80
2023-04-24T02:48:44.732Z,11.10
2023-04-24T02:51:13.058Z,10.90
2023-04-24T02:53:41.057Z,13.20
2023-04-24T02:56:09.335Z,10.60
2023-04-24T02:58:37.122Z,10.80
2023-04-24T03:01:05.835Z,11.80
2023-04-24T03:03:33.723Z,10.30
2023-04-24T03:06:01.697Z,11.90
2023-04-24T03:08:30.082Z,10.90
2023-04-24T03:10:57.866Z,13.90
2023-04-24T03:13:25.803Z,12.60
2023-04-24T03:15:54.544Z,13.60
2023-04-24T03:18:22.347Z,13.80
2023-04-24T03:20:51.174Z,11.40
2023-04-24T03:23:18.980Z,11.50
2023-04-24T03:25:46.778Z,12.30
2023-04-24T03:28:14.542Z,11.00
2023-04-24T03:30:42.489Z,11.40
2023-04-24T03:33:10.949Z,13.40
2023-04-24T03:35:38.823Z,13.20
2023-04-24T03:38:06.704Z,14.40
2023-04-24T03:40:34.717Z,11.50
2023-04-24T03:43:02.673Z,10.80
2023-04-24T03:45:30.561Z,12.00
2023-04-24T03:47:58.411Z,10.80
2023-04-24T03:50:27.807Z,11.00
2023-04-24T03:52:56.377Z,11.00
2023-04-24T03:55:24.128Z,13.80
2023-04-24T03:57:53.543Z,14.10
2023-04-24T04:00:22.142Z,10.90
2023-04-24T04:02:50.056Z,12.60
2023-04-24T04:05:18.242Z,11.90
2023-04-24T04:07:46.095Z,13.20
2023-04-24T04:10:13.957Z,12.80
2023-04-24T04:12:41.800Z,13.70
2023-04-24T04:15:09.906Z,17.40
2023-04-24T04:17:39.178Z,16.20
2023-04-24T04:20:10.563Z,13.80
2023-04-24T04:22:38.657Z,14.70
2023-04-24T04:25:08.586Z,14.10
2023-04-24T04:27:37.802Z,13.10
2023-04-24T04:43:27.291Z,11.30
2023-04-24T04:56:35.231Z,13.00
2023-04-24T04:59:27.123Z,11.80
2023-04-24T05:13:50.578Z,12.10
2023-04-24T05:16:17.699Z,11.70
2023-04-24T05:18:51.983Z,10.80
2023-04-24T05:21:26.608Z,12.50
2023-04-24T05:23:58.544Z,12.40
2023-04-24T05:28:05.954Z,14.30
2023-04-24T05:30:34.510Z,15.80
2023-04-24T05:33:02.546Z,14.90
2023-04-24T05:35:30.887Z,11.80
2023-04-24T05:37:58.688Z,11.80
2023-04-24T05:40:26.430Z,12.80
2023-04-24T05:42:54.435Z,11.30
2023-04-24T05:45:22.257Z,11.00
2023-04-24T05:48:08.772Z,13.40
2023-04-24T05:50:37.276Z,10.90
2023-04-24T05:55:27.144Z,12.40
2023-04-24T05:58:33.296Z,15.20
2023-04-24T06:01:49.411Z,11.20
2023-04-24T06:05:33.726Z,14.20
2023-04-24T06:09:00.252Z,10.50
2023-04-24T06:12:52.601Z,13.10
2023-04-24T06:15:22.813Z,12.00
2023-04-24T06:17:51.077Z,11.30
2023-04-24T06:20:21.510Z,11.90
2023-04-24T06:22:52.223Z,13.10
2023-04-24T06:25:20.277Z,10.00
2023-04-24T06:27:48.057Z,11.70
2023-04-24T06:30:24.103Z,12.00
2023-04-24T06:33:18.716Z,11.10
2023-04-24T06:35:47.663Z,16.10
2023-04-24T06:38:17.899Z,11.00
2023-04-24T06:40:46.392Z,11.40
2023-04-24T06:43:16.560Z,14.90
2023-04-24T06:45:45.277Z,12.90
2023-04-24T06:48:36.140Z,10.00
2023-04-24T06:51:07.843Z,13.20
2023-04-24T06:53:36.168Z,9.80
2023-04-24T06:56:05.075Z,10.10
2023-04-24T06:58:32.836Z,12.10
2023-04-24T07:01:00.626Z,12.10
2023-04-24T07:03:32.141Z,10.50
2023-04-24T07:06:00.251Z,12.00
2023-04-24T07:08:28.024Z,13.10
2023-04-24T07:10:57.088Z,12.80
2023-04-24T07:13:25.147Z,12.70
2023-04-24T07:15:55.200Z,10.90
2023-04-24T07:18:23.830Z,11.40
2023-04-24T07:20:54.458Z,12.90
2023-04-24T07:23:49.643Z,13.50
2023-04-24T07:55:41.310Z,12.80
2023-04-24T08:51:23.867Z,9.50
2023-04-24T09:18:44.311Z,7.10
2023-04-24T09:31:58.436Z,10.30
2023-04-24T09:34:28.102Z,7.70
2023-04-24T09:36:56.495Z,8.50
2023-04-24T09:39:24.542Z,9.00
2023-04-24T09:41:58.631Z,9.30
2023-04-24T09:44:28.611Z,11.20
2023-04-24T09:46:59.418Z,6.00
2023-04-24T09:49:28.047Z,9.60
2023-04-24T09:52:07.719Z,9.60
2023-04-24T09:54:37.869Z,9.00
2023-04-24T09:57:09.259Z,9.00
2023-04-24T09:59:43.580Z,6.30
2023-04-24T10:02:20.201Z,7.80
2023-04-24T10:05:00.304Z,7.20
2023-04-24T10:07:28.695Z,6.80
2023-04-24T10:09:56.675Z,10.40
2023-04-24T10:12:26.081Z,8.20
2023-04-24T10:14:54.424Z,9.20
2023-04-24T10:17:22.999Z,6.50
2023-04-24T10:19:51.266Z,7.00
2023-04-24T10:22:19.351Z,10.10
2023-04-24T10:24:49.639Z,9.60
2023-04-24T10:27:18.320Z,10.00
2023-04-24T10:29:50.071Z,7.40
2023-04-24T10:32:17.935Z,6.00
2023-04-24T10:34:48.405Z,6.90
2023-04-24T10:37:17.578Z,5.90
2023-04-24T10:39:49.760Z,5.90
2023-04-24T10:42:20.636Z,6.00
2023-04-24T10:44:50.374Z,9.10
2023-04-24T10:47:18.333Z,6.60
2023-04-24T10:49:49.115Z,5.90
2023-04-24T10:52:18.446Z,7.30
2023-04-24T10:54:50.610Z,5.50
2023-04-24T10:57:26.531Z,6.50
2023-04-24T11:00:19.321Z,5.90
2023-04-24T11:02:54.130Z,5.90
2023-04-24T11:05:23.914Z,6.50
2023-04-24T11:08:13.146Z,6.20
2023-04-24T11:10:45.694Z,5.60
2023-04-24T11:13:19.003Z,8.20
2023-04-24T11:22:19.838Z,8.90
2023-04-24T11:25:03.359Z,5.60
2023-04-24T11:27:49.505Z,5.70
2023-04-24T11:30:26.009Z,5.70
2023-04-24T11:33:08.254Z,5.00
2023-04-24T11:35:53.113Z,8.40
2023-04-24T11:38:32.493Z,7.00
2023-04-24T11:41:12.116Z,5.80
2023-04-24T11:43:50.102Z,6.80
2023-04-24T11:46:41.672Z,5.40
2023-04-24T11:49:14.628Z,7.00
2023-04-24T11:51:53.501Z,6.20
2023-04-24T11:54:25.069Z,7.30
2023-04-24T11:56:59.746Z,4.50
2023-04-24T11:59:29.119Z,8.40
2023-04-24T12:01:57.114Z,7.50
2023-04-24T12:04:26.001Z,8.20
2023-04-24T12:18:20.961Z,6.00
2023-04-24T12:20:50.100Z,5.20
2023-04-24T12:25:21.243Z,5.20
2023-04-24T12:28:17.138Z,5.40
2023-04-24T12:40:46.801Z,3.60
2023-04-24T12:43:17.907Z,4.70
2023-04-24T12:45:52.529Z,5.70
2023-04-24T12:48:22.979Z,6.10
2023-04-24T12:50:51.189Z,7.00
2023-04-24T12:53:43.542Z,6.60
2023-04-24T12:56:11.833Z,24.20
2023-04-24T12:58:44.844Z,24.10
2023-04-24T13:01:14.819Z,24.30
2023-04-24T13:03:46.515Z,19.40
2023-04-24T13:06:17.080Z,18.90
2023-04-24T13:08:48.990Z,12.30
2023-04-24T13:11:37.199Z,16.40
2023-04-24T13:14:06.042Z,8.80
2023-04-24T13:16:34.883Z,12.40
2023-04-24T13:19:03.346Z,13.50
2023-04-24T13:21:35.294Z,13.00
2023-04-24T13:24:06.040Z,11.10
2023-04-24T13:26:34.214Z,8.50
2023-04-24T13:29:02.117Z,6.60
2023-04-24T13:31:31.878Z,8.50
2023-04-24T13:33:59.879Z,7.50
2023-04-24T13:36:30.293Z,4.50
2023-04-24T13:39:00.418Z,6.10
2023-04-24T13:41:30.027Z,5.60
2023-04-24T13:43:58.018Z,4.40
2023-04-24T13:46:26.061Z,8.60
2023-04-24T13:48:56.504Z,8.20
2023-04-24T13:51:28.666Z,6.20
2023-04-24T13:53:56.848Z,5.10
2023-04-24T13:56:25.028Z,6.20
2023-04-24T13:58:57.306Z,3.20
2023-04-24T14:01:29.136Z,3.40
2023-04-24T14:03:58.564Z,4.00
2023-04-24T14:06:27.058Z,4.40
2023-04-24T14:08:55.312Z,9.90
2023-04-24T14:11:24.704Z,5.40
2023-04-24T14:13:55.986Z,6.10
2023-04-24T14:16:26.714Z,4.40
2023-04-24T14:18:56.219Z,6.90
2023-04-24T14:21:26.318Z,7.00
2023-04-24T14:23:54.302Z,5.90
2023-04-24T14:26:22.971Z,5.00
2023-04-24T14:28:58.056Z,4.00
2023-04-24T14:31:34.517Z,4.50
2023-04-24T14:34:02.803Z,3.80
2023-04-24T14:36:33.066Z,6.10
2023-04-24T14:39:02.176Z,5.30
2023-04-24T14:41:38.753Z,4.00
2023-04-24T14:44:09.108Z,5.00
2023-04-24T14:46:43.869Z,5.30
2023-04-24T14:49:15.752Z,5.10
2023-04-24T14:58:39.975Z,3.80
2023-04-24T15:01:11.887Z,3.30
2023-04-24T15:03:41.928Z,3.60
2023-04-24T15:06:17.003Z,4.70
2023-04-24T15:08:43.495Z,4.50
2023-04-24T15:11:13.579Z,6.00
2023-04-24T15:13:42.744Z,4.80
2023-04-24T15:16:09.452Z,3.90
2023-04-24T15:18:39.468Z,5.80
2023-04-24T15:21:06.369Z,3.80
2023-04-24T15:23:34.115Z,4.90
2023-04-24T15:26:03.446Z,5.80
2023-04-24T15:28:29.946Z,4.90
2023-04-24T15:35:26.366Z,3.20
2023-04-24T15:37:56.808Z,6.00
2023-04-24T15:40:29.720Z,4.80
2023-04-24T15:42:59.659Z,5.70
2023-04-24T15:45:28.321Z,5.50
2023-04-24T15:47:56.615Z,4.20
2023-04-24T15:50:24.932Z,4.60
2023-04-24T15:53:06.733Z,4.10
2023-04-24T15:55:37.612Z,5.80
2023-04-24T15:58:27.648Z,5.40
2023-04-24T16:00:55.711Z,5.10
2023-04-24T16:03:26.014Z,5.60
2023-04-24T16:05:54.126Z,3.90
2023-04-24T16:08:33.500Z,5.20
2023-04-24T16:11:01.874Z,3.60
2023-04-24T16:13:34.979Z,5.40
2023-04-24T16:16:03.163Z,7.50
2023-04-24T16:18:31.793Z,5.30
2023-04-24T16:21:01.443Z,4.30
2023-04-24T16:23:30.371Z,4.70
2023-04-24T16:26:00.891Z,4.80
2023-04-24T16:28:31.301Z,4.30
2023-04-24T16:31:17.376Z,4.40
2023-04-24T16:33:52.531Z,5.00
2023-04-24T16:36:25.000Z,4.90
2023-04-24T16:38:53.055Z,6.20
2023-04-24T16:41:21.928Z,7.10
2023-04-24T16:43:55.951Z,5.10
2023-04-24T16:46:30.276Z,6.80
2023-04-24T16:49:02.011Z,5.70
2023-04-24T16:51:36.112Z,5.10
2023-04-24T16:54:04.845Z,6.00
2023-04-24T16:56:34.077Z,7.40
2023-04-24T16:59:05.857Z,4.60
2023-04-24T17:01:35.373Z,6.00
2023-04-24T17:04:06.957Z,5.30
2023-04-24T17:06:35.650Z,8.50
2023-04-24T17:09:04.554Z,5.40
2023-04-24T17:11:33.335Z,10.10
2023-04-24T17:14:06.408Z,4.50
2023-04-24T17:16:34.541Z,6.40
2023-04-24T17:19:02.930Z,7.10
2023-04-24T17:21:31.919Z,7.50
2023-04-24T17:23:59.924Z,8.60
2023-04-24T17:26:28.772Z,4.50
2023-04-24T17:28:57.457Z,6.40
2023-04-24T17:31:25.282Z,7.30
2023-04-24T17:33:53.190Z,9.40
2023-04-24T17:36:21.045Z,6.90
2023-04-24T17:38:49.584Z,6.30
2023-04-24T17:41:17.936Z,9.00
2023-04-24T17:43:45.953Z,6.60
2023-04-24T17:46:14.128Z,9.60
2023-04-24T17:48:42.197Z,9.60
2023-04-24T17:51:10.819Z,8.50
2023-04-24T17:53:39.640Z,10.20
2023-04-24T17:56:07.838Z,10.50
2023-04-24T17:58:36.022Z,11.70
2023-04-24T18:01:03.971Z,6.80
2023-04-24T18:03:31.862Z,11.30
2023-04-24T18:06:04.264Z,10.00
2023-04-24T18:11:15.189Z,14.70
2023-04-24T18:13:43.219Z,9.80
2023-04-24T18:16:11.019Z,9.10
2023-04-24T18:18:39.010Z,8.60
2023-04-24T18:21:06.965Z,9.80
2023-04-24T18:23:35.608Z,11.10
2023-04-24T18:26:03.599Z,12.20
2023-04-24T18:28:34.773Z,11.90
2023-04-24T18:31:02.578Z,11.60
2023-04-24T18:33:31.780Z,10.00
2023-04-24T18:36:01.325Z,11.20
2023-04-24T18:38:29.587Z,10.60
2023-04-24T18:40:57.389Z,11.70
2023-04-24T18:43:25.672Z,10.00
2023-04-24T18:45:53.566Z,9.20
2023-04-24T18:48:22.296Z,10.00
2023-04-24T18:50:53.290Z,11.60
2023-04-24T18:53:21.854Z,10.20
2023-04-24T18:55:49.761Z,7.60
2023-04-24T18:58:18.273Z,9.70
2023-04-24T19:00:46.358Z,10.30
2023-04-24T19:03:16.129Z,8.00
2023-04-24T19:05:44.022Z,10.60
2023-04-24T19:08:12.933Z,8.40
2023-04-24T19:10:40.881Z,9.20
2023-04-24T19:13:10.140Z,12.00
2023-04-24T19:15:40.161Z,9.00
2023-04-24T19:18:07.899Z,8.50
2023-04-24T19:20:36.035Z,9.20
2023-04-24T19:23:03.817Z,11.50
2023-04-24T19:25:31.653Z,7.00
2023-04-24T19:27:59.427Z,9.20
2023-04-24T19:30:28.371Z,8.50
2023-04-24T19:32:56.393Z,7.70
2023-04-24T19:35:24.542Z,6.90
2023-04-24T19:41:56.872Z,6.60
2023-04-24T19:44:26.895Z,8.60
2023-04-24T19:46:53.276Z,9.90
2023-04-24T19:49:21.607Z,9.70
2023-04-24T19:51:48.386Z,7.90
2023-04-24T19:54:15.400Z,10.60
2023-04-24T19:56:42.367Z,9.00
2023-04-24T19:59:08.672Z,7.40
2023-04-24T20:01:35.212Z,7.70
2023-04-24T20:04:02.797Z,9.80
2023-04-24T20:06:30.141Z,10.10
2023-04-24T20:08:56.655Z,6.80
2023-04-24T20:11:23.110Z,9.20
2023-04-24T20:13:50.109Z,11.90
2023-04-24T20:16:17.386Z,11.40
2023-04-24T20:18:44.572Z,9.80
2023-04-24T20:21:10.932Z,9.50
2023-04-24T20:23:37.236Z,8.50
2023-04-24T20:26:04.268Z,7.50
2023-04-24T20:28:30.776Z,10.40
2023-04-24T20:30:58.429Z,9.20
2023-04-24T20:33:27.353Z,10.00
2023-04-24T20:35:54.020Z,9.60
2023-04-24T20:38:21.820Z,7.30
2023-04-24T20:43:18.286Z,9.40
2023-04-24T20:45:44.809Z,7.90
2023-04-24T20:48:12.238Z,10.30
2023-04-24T20:50:40.582Z,7.60
2023-04-24T20:53:09.037Z,12.80
2023-04-24T20:55:35.881Z,11.50
2023-04-24T20:58:02.334Z,8.40
2023-04-24T21:00:29.178Z,8.70
2023-04-24T21:02:55.708Z,9.50
2023-04-24T21:05:22.457Z,9.60
2023-04-24T21:07:51.145Z,10.10
2023-04-24T21:10:19.028Z,8.90
2023-04-24T21:12:45.447Z,10.40
2023-04-24T21:15:11.789Z,9.80
2023-04-24T21:17:39.174Z,9.00
2023-04-24T21:20:07.700Z,12.80
2023-04-24T21:22:35.290Z,9.10
2023-04-24T21:25:03.041Z,11.30
2023-04-24T21:27:30.073Z,12.30
2023-04-24T21:29:56.377Z,9.30
2023-04-24T21:32:22.864Z,9.10
2023-04-24T21:34:49.714Z,10.00
2023-04-24T21:37:16.229Z,9.80
2023-04-24T21:39:43.629Z,11.10
2023-04-24T21:42:12.215Z,9.50
2023-04-24T21:44:38.848Z,10.90
2023-04-24T21:47:05.672Z,9.50
2023-04-24T21:49:32.182Z,9.90
2023-04-24T21:51:58.602Z,9.00
2023-04-24T21:54:27.243Z,10.00
2023-04-24T21:56:53.710Z,8.80
2023-04-24T21:59:20.538Z,9.40
2023-04-24T22:01:46.940Z,11.70
2023-04-24T22:04:13.518Z,9.30
2023-04-24T22:06:40.201Z,9.90
2023-04-24T22:09:07.078Z,9.30
2023-04-24T22:11:33.557Z,9.30
2023-04-24T22:14:00.049Z,9.10
2023-04-24T22:16:27.750Z,9.90
2023-04-24T22:18:55.551Z,9.10
2023-04-24T22:21:22.154Z,9.50
2023-04-24T22:23:48.963Z,8.90
2023-04-24T22:26:15.667Z,9.30
2023-04-24T22:28:42.416Z,9.50
2023-04-24T22:31:10.257Z,9.40
2023-04-24T22:33:36.861Z,11.60
2023-04-24T22:36:03.594Z,9.80
2023-04-24T22:38:29.970Z,9.70
2023-04-24T22:40:56.324Z,10.10
2023-04-24T22:43:22.797Z,10.10
2023-04-24T22:45:49.501Z,11.10
2023-04-24T22:48:16.295Z,10.80
2023-04-24T22:50:42.685Z,11.50
2023-04-24T22:53:09.234Z,12.50
2023-04-24T22:55:35.826Z,11.70
2023-04-24T22:58:02.492Z,11.50
2023-04-24T23:00:29.261Z,11.80
2023-04-24T23:02:55.830Z,11.60
2023-04-24T23:05:24.521Z,11.60
2023-04-24T23:07:51.847Z,11.20
2023-04-24T23:10:18.243Z,11.40
2023-04-24T23:12:44.643Z,11.00
2023-04-24T23:15:13.874Z,11.30
2023-04-24T23:17:40.848Z,11.60
2023-04-24T23:20:09.791Z,12.70
2023-04-24T23:22:36.120Z,11.70
2023-04-24T23:25:02.558Z,12.40
2023-04-24T23:27:28.874Z,12.60
2023-04-24T23:29:55.270Z,12.30
2023-04-24T23:32:21.636Z,13.40
2023-04-24T23:34:48.882Z,12.70
2023-04-24T23:37:17.288Z,13.00
2023-04-24T23:39:45.315Z,12.80
2023-04-24T23:42:11.803Z,12.90
2023-04-24T23:44:38.659Z,13.30
2023-04-24T23:47:05.019Z,13.60
2023-04-24T23:49:31.295Z,13.50
2023-04-24T23:51:57.726Z,13.70
2023-04-24T23:54:25.653Z,13.60
2023-04-24T23:56:52.171Z,13.60
2023-04-24T23:59:20.910Z,13.30
